sensor_id;sensor_type;location;lat;lon;timestamp;temperature;humidity
18426;DHT22;9340;48.756;9.226;2024-03-08T00:01:36;2.70;99.90
18426;DHT22;9340;48.756;9.226;2024-03-08T00:04:03;2.70;99.90
18426;DHT22;9340;48.756;9.226;2024-03-08T00:06:29;2.60;99.90
18426;DHT22;9340;48.756;9.226;2024-03-08T00:08:57;2.60;99.90
18426;DHT22;9340;48.756;9.226;2024-03-08T00:11:24;2.50;99.90
18426;DHT22;9340;48.756;9.226;2024-03-08T00:13:51;2.40;99.90
18426;DHT22;9340;48.756;9.226;2024-03-08T00:16:18;2.40;99.90
18426;DHT22;9340;48.756;9.226;2024-03-08T00:18:45;2.40;99.90
18426;DHT22;9340;48.756;9.226;2024-03-08T00:21:13;2.30;99.90
18426;DHT22;9340;48.756;9.226;2024-03-08T00:23:40;2.30;99.90
18426;DHT22;9340;48.756;9.226;2024-03-08T00:26:09;2.30;99.90
18426;DHT22;9340;48.756;9.226;2024-03-08T00:28:35;2.20;99.90
18426;DHT22;9340;48.756;9.226;2024-03-08T00:31:02;2.20;99.90
18426;DHT22;9340;48.756;9.226;2024-03-08T00:33:29;2.10;99.90
18426;DHT22;9340;48.756;9.226;2024-03-08T00:35:56;2.10;99.90
18426;DHT22;9340;48.756;9.226;2024-03-08T00:38:22;2.10;99.90
18426;DHT22;9340;48.756;9.226;2024-03-08T00:40:49;2.10;99.90
18426;DHT22;9340;48.756;9.226;2024-03-08T00:43:17;2.10;99.90
18426;DHT22;9340;48.756;9.226;2024-03-08T00:45:44;2.10;99.90
18426;DHT22;9340;48.756;9.226;2024-03-08T00:48:12;2.10;99.90
18426;DHT22;9340;48.756;9.226;2024-03-08T00:50:39;2.00;99.90
18426;DHT22;9340;48.756;9.226;2024-03-08T00:53:06;2.00;99.90
18426;DHT22;9340;48.756;9.226;2024-03-08T00:55:33;1.90;99.90
18426;DHT22;9340;48.756;9.226;2024-03-08T00:58:00;1.90;99.90
18426;DHT22;9340;48.756;9.226;2024-03-08T01:00:28;1.90;99.90
18426;DHT22;9340;48.756;9.226;2024-03-08T01:02:55;1.80;99.90
18426;DHT22;9340;48.756;9.226;2024-03-08T01:05:22;1.90;99.90
18426;DHT22;9340;48.756;9.226;2024-03-08T01:07:50;1.90;99.90
18426;DHT22;9340;48.756;9.226;2024-03-08T01:10:17;1.70;99.90
18426;DHT22;9340;48.756;9.226;2024-03-08T01:12:43;1.70;99.90
18426;DHT22;9340;48.756;9.226;2024-03-08T01:15:10;1.60;99.90
18426;DHT22;9340;48.756;9.226;2024-03-08T01:17:38;1.70;99.90
18426;DHT22;9340;48.756;9.226;2024-03-08T01:20:08;1.70;99.90
18426;DHT22;9340;48.756;9.226;2024-03-08T01:22:36;1.70;99.90
18426;DHT22;9340;48.756;9.226;2024-03-08T01:25:03;1.70;99.90
18426;DHT22;9340;48.756;9.226;2024-03-08T01:27:31;1.70;99.90
18426;DHT22;9340;48.756;9.226;2024-03-08T01:29:57;1.70;99.90
18426;DHT22;9340;48.756;9.226;2024-03-08T01:32:24;1.70;99.90
18426;DHT22;9340;48.756;9.226;2024-03-08T01:34:52;1.60;99.90
18426;DHT22;9340;48.756;9.226;2024-03-08T01:37:19;1.60;99.90
18426;DHT22;9340;48.756;9.226;2024-03-08T01:39:46;1.50;99.90
18426;DHT22;9340;48.756;9.226;2024-03-08T01:42:13;1.50;99.90
18426;DHT22;9340;48.756;9.226;2024-03-08T01:44:42;1.60;99.90
18426;DHT22;9340;48.756;9.226;2024-03-08T01:47:10;1.50;99.90
18426;DHT22;9340;48.756;9.226;2024-03-08T01:49:37;1.40;99.90
18426;DHT22;9340;48.756;9.226;2024-03-08T01:52:06;1.30;99.90
18426;DHT22;9340;48.756;9.226;2024-03-08T01:54:32;1.30;99.90
18426;DHT22;9340;48.756;9.226;2024-03-08T01:57:00;1.30;99.90
18426;DHT22;9340;48.756;9.226;2024-03-08T01:59:27;1.30;99.90
18426;DHT22;9340;48.756;9.226;2024-03-08T02:01:55;1.30;99.90
18426;DHT22;9340;48.756;9.226;2024-03-08T02:04:22;1.30;99.90
18426;DHT22;9340;48.756;9.226;2024-03-08T02:06:49;1.20;99.90
18426;DHT22;9340;48.756;9.226;2024-03-08T02:09:18;1.20;99.90
18426;DHT22;9340;48.756;9.226;2024-03-08T02:11:45;1.20;99.90
18426;DHT22;9340;48.756;9.226;2024-03-08T02:14:13;1.20;99.90
18426;DHT22;9340;48.756;9.226;2024-03-08T02:16:39;1.20;99.90
18426;DHT22;9340;48.756;9.226;2024-03-08T02:19:06;1.20;99.90
18426;DHT22;9340;48.756;9.226;2024-03-08T02:21:36;1.20;99.90
18426;DHT22;9340;48.756;9.226;2024-03-08T02:24:04;1.20;99.90
18426;DHT22;9340;48.756;9.226;2024-03-08T02:26:31;1.10;99.90
18426;DHT22;9340;48.756;9.226;2024-03-08T02:28:57;1.10;99.90
18426;DHT22;9340;48.756;9.226;2024-03-08T02:31:24;1.10;99.90
18426;DHT22;9340;48.756;9.226;2024-03-08T02:33:51;1.10;99.90
18426;DHT22;9340;48.756;9.226;2024-03-08T02:36:17;1.00;99.90
18426;DHT22;9340;48.756;9.226;2024-03-08T02:38:45;1.10;99.90
18426;DHT22;9340;48.756;9.226;2024-03-08T02:41:12;1.10;99.90
18426;DHT22;9340;48.756;9.226;2024-03-08T02:43:39;1.10;99.90
18426;DHT22;9340;48.756;9.226;2024-03-08T02:46:05;1.00;99.90
18426;DHT22;9340;48.756;9.226;2024-03-08T02:48:32;1.00;99.90
18426;DHT22;9340;48.756;9.226;2024-03-08T02:50:58;1.00;99.90
18426;DHT22;9340;48.756;9.226;2024-03-08T02:53:27;1.00;99.90
18426;DHT22;9340;48.756;9.226;2024-03-08T02:55:55;0.90;99.90
18426;DHT22;9340;48.756;9.226;2024-03-08T02:58:22;0.90;99.90
18426;DHT22;9340;48.756;9.226;2024-03-08T03:00:49;0.90;99.90
18426;DHT22;9340;48.756;9.226;2024-03-08T03:03:15;1.00;99.90
18426;DHT22;9340;48.756;9.226;2024-03-08T03:05:42;1.00;99.90
18426;DHT22;9340;48.756;9.226;2024-03-08T03:08:09;1.00;99.90
18426;DHT22;9340;48.756;9.226;2024-03-08T03:10:37;1.00;99.90
18426;DHT22;9340;48.756;9.226;2024-03-08T03:13:05;0.90;99.90
18426;DHT22;9340;48.756;9.226;2024-03-08T03:15:32;0.90;99.90
18426;DHT22;9340;48.756;9.226;2024-03-08T03:17:59;1.10;99.90
18426;DHT22;9340;48.756;9.226;2024-03-08T03:20:25;1.20;99.90
18426;DHT22;9340;48.756;9.226;2024-03-08T03:22:57;1.20;99.90
18426;DHT22;9340;48.756;9.226;2024-03-08T03:25:26;1.30;99.90
18426;DHT22;9340;48.756;9.226;2024-03-08T03:27:58;1.50;99.90
18426;DHT22;9340;48.756;9.226;2024-03-08T03:30:26;1.50;99.90
18426;DHT22;9340;48.756;9.226;2024-03-08T03:32:58;1.50;99.90
18426;DHT22;9340;48.756;9.226;2024-03-08T03:35:26;1.50;99.90
18426;DHT22;9340;48.756;9.226;2024-03-08T03:37:52;1.50;99.90
18426;DHT22;9340;48.756;9.226;2024-03-08T03:40:27;1.50;99.90
18426;DHT22;9340;48.756;9.226;2024-03-08T03:42:54;1.50;99.90
18426;DHT22;9340;48.756;9.226;2024-03-08T03:45:21;1.50;99.90
18426;DHT22;9340;48.756;9.226;2024-03-08T03:47:49;1.40;99.90
18426;DHT22;9340;48.756;9.226;2024-03-08T03:50:17;1.40;99.90
18426;DHT22;9340;48.756;9.226;2024-03-08T03:52:44;1.40;99.90
18426;DHT22;9340;48.756;9.226;2024-03-08T03:55:11;1.50;99.90
18426;DHT22;9340;48.756;9.226;2024-03-08T03:57:38;1.50;99.90
18426;DHT22;9340;48.756;9.226;2024-03-08T04:00:06;1.50;99.90
18426;DHT22;9340;48.756;9.226;2024-03-08T04:02:36;1.50;99.90
18426;DHT22;9340;48.756;9.226;2024-03-08T04:05:04;1.40;99.90
18426;DHT22;9340;48.756;9.226;2024-03-08T04:07:31;1.40;99.90
18426;DHT22;9340;48.756;9.226;2024-03-08T04:09:58;1.40;99.90
18426;DHT22;9340;48.756;9.226;2024-03-08T04:12:24;1.40;99.90
18426;DHT22;9340;48.756;9.226;2024-03-08T04:14:51;1.30;99.90
18426;DHT22;9340;48.756;9.226;2024-03-08T04:17:18;1.30;99.90
18426;DHT22;9340;48.756;9.226;2024-03-08T04:19:45;1.30;99.90
18426;DHT22;9340;48.756;9.226;2024-03-08T04:22:14;1.20;99.90
18426;DHT22;9340;48.756;9.226;2024-03-08T04:24:43;1.20;99.90
18426;DHT22;9340;48.756;9.226;2024-03-08T04:27:10;1.30;99.90
18426;DHT22;9340;48.756;9.226;2024-03-08T04:29:36;1.20;99.90
18426;DHT22;9340;48.756;9.226;2024-03-08T04:32:04;1.10;99.90
18426;DHT22;9340;48.756;9.226;2024-03-08T04:34:32;1.10;99.90
18426;DHT22;9340;48.756;9.226;2024-03-08T04:36:59;1.00;99.90
18426;DHT22;9340;48.756;9.226;2024-03-08T04:39:27;1.10;99.90
18426;DHT22;9340;48.756;9.226;2024-03-08T04:41:55;1.00;99.90
18426;DHT22;9340;48.756;9.226;2024-03-08T04:44:22;1.00;99.90
18426;DHT22;9340;48.756;9.226;2024-03-08T04:46:50;0.90;99.90
18426;DHT22;9340;48.756;9.226;2024-03-08T04:49:16;0.90;99.90
18426;DHT22;9340;48.756;9.226;2024-03-08T04:51:43;0.90;99.90
18426;DHT22;9340;48.756;9.226;2024-03-08T04:54:11;0.90;99.90
18426;DHT22;9340;48.756;9.226;2024-03-08T04:56:39;0.90;99.90
18426;DHT22;9340;48.756;9.226;2024-03-08T04:59:06;0.80;99.90
18426;DHT22;9340;48.756;9.226;2024-03-08T05:01:34;0.90;99.90
18426;DHT22;9340;48.756;9.226;2024-03-08T05:04:02;0.90;99.90
18426;DHT22;9340;48.756;9.226;2024-03-08T05:06:28;0.80;99.90
18426;DHT22;9340;48.756;9.226;2024-03-08T05:08:55;0.80;99.90
18426;DHT22;9340;48.756;9.226;2024-03-08T05:11:22;0.80;99.90
18426;DHT22;9340;48.756;9.226;2024-03-08T05:13:50;0.80;99.90
18426;DHT22;9340;48.756;9.226;2024-03-08T05:16:17;0.80;99.90
18426;DHT22;9340;48.756;9.226;2024-03-08T05:18:43;0.80;99.90
18426;DHT22;9340;48.756;9.226;2024-03-08T05:21:12;0.80;99.90
18426;DHT22;9340;48.756;9.226;2024-03-08T05:23:39;0.80;99.90
18426;DHT22;9340;48.756;9.226;2024-03-08T05:26:06;0.70;99.90
18426;DHT22;9340;48.756;9.226;2024-03-08T05:28:32;0.70;99.90
18426;DHT22;9340;48.756;9.226;2024-03-08T05:31:00;0.70;99.90
18426;DHT22;9340;48.756;9.226;2024-03-08T05:33:27;0.60;99.90
18426;DHT22;9340;48.756;9.226;2024-03-08T05:35:54;0.60;99.90
18426;DHT22;9340;48.756;9.226;2024-03-08T05:38:21;0.60;99.90
18426;DHT22;9340;48.756;9.226;2024-03-08T05:40:47;0.50;99.90
18426;DHT22;9340;48.756;9.226;2024-03-08T05:43:14;0.50;99.90
18426;DHT22;9340;48.756;9.226;2024-03-08T05:45:43;0.50;99.90
18426;DHT22;9340;48.756;9.226;2024-03-08T05:48:10;0.50;99.90
18426;DHT22;9340;48.756;9.226;2024-03-08T05:50:38;0.40;99.90
18426;DHT22;9340;48.756;9.226;2024-03-08T05:53:04;0.40;99.90
18426;DHT22;9340;48.756;9.226;2024-03-08T05:55:32;0.40;99.90
18426;DHT22;9340;48.756;9.226;2024-03-08T05:58:00;0.50;99.90
18426;DHT22;9340;48.756;9.226;2024-03-08T06:00:27;0.50;99.90
18426;DHT22;9340;48.756;9.226;2024-03-08T06:02:54;0.50;99.90
18426;DHT22;9340;48.756;9.226;2024-03-08T06:05:22;0.50;99.90
18426;DHT22;9340;48.756;9.226;2024-03-08T06:07:50;0.50;99.90
18426;DHT22;9340;48.756;9.226;2024-03-08T06:10:19;0.50;99.90
18426;DHT22;9340;48.756;9.226;2024-03-08T06:12:45;0.50;99.90
18426;DHT22;9340;48.756;9.226;2024-03-08T06:15:12;0.50;99.90
18426;DHT22;9340;48.756;9.226;2024-03-08T06:17:40;0.50;99.90
18426;DHT22;9340;48.756;9.226;2024-03-08T06:20:07;0.60;99.90
18426;DHT22;9340;48.756;9.226;2024-03-08T06:22:40;0.60;99.90
18426;DHT22;9340;48.756;9.226;2024-03-08T06:25:07;0.70;99.90
18426;DHT22;9340;48.756;9.226;2024-03-08T06:27:34;0.80;99.90
18426;DHT22;9340;48.756;9.226;2024-03-08T06:30:01;0.80;99.90
18426;DHT22;9340;48.756;9.226;2024-03-08T06:32:30;0.80;99.90
18426;DHT22;9340;48.756;9.226;2024-03-08T06:35:01;1.00;99.90
18426;DHT22;9340;48.756;9.226;2024-03-08T06:37:27;1.10;99.90
18426;DHT22;9340;48.756;9.226;2024-03-08T06:39:55;1.10;99.90
18426;DHT22;9340;48.756;9.226;2024-03-08T06:42:22;1.20;99.90
18426;DHT22;9340;48.756;9.226;2024-03-08T06:44:49;1.30;99.90
18426;DHT22;9340;48.756;9.226;2024-03-08T06:47:15;1.40;99.90
18426;DHT22;9340;48.756;9.226;2024-03-08T06:49:42;1.50;99.90
18426;DHT22;9340;48.756;9.226;2024-03-08T06:52:09;1.70;99.90
18426;DHT22;9340;48.756;9.226;2024-03-08T06:54:36;1.90;99.90
18426;DHT22;9340;48.756;9.226;2024-03-08T06:57:04;2.10;99.90
18426;DHT22;9340;48.756;9.226;2024-03-08T06:59:31;2.30;99.90
18426;DHT22;9340;48.756;9.226;2024-03-08T07:01:58;2.50;99.90
18426;DHT22;9340;48.756;9.226;2024-03-08T07:04:25;2.60;99.90
18426;DHT22;9340;48.756;9.226;2024-03-08T07:06:55;2.70;99.90
18426;DHT22;9340;48.756;9.226;2024-03-08T07:09:22;2.80;99.90
18426;DHT22;9340;48.756;9.226;2024-03-08T07:11:49;3.00;99.90
18426;DHT22;9340;48.756;9.226;2024-03-08T07:14:21;3.20;99.90
18426;DHT22;9340;48.756;9.226;2024-03-08T07:16:48;3.30;99.90
18426;DHT22;9340;48.756;9.226;2024-03-08T07:19:15;3.40;99.90
18426;DHT22;9340;48.756;9.226;2024-03-08T07:21:42;3.60;99.90
18426;DHT22;9340;48.756;9.226;2024-03-08T07:24:09;3.50;99.90
18426;DHT22;9340;48.756;9.226;2024-03-08T07:26:50;3.50;99.90
18426;DHT22;9340;48.756;9.226;2024-03-08T07:29:17;3.80;99.90
18426;DHT22;9340;48.756;9.226;2024-03-08T07:31:45;4.10;99.90
18426;DHT22;9340;48.756;9.226;2024-03-08T07:34:20;4.20;99.90
18426;DHT22;9340;48.756;9.226;2024-03-08T07:36:47;4.40;99.90
18426;DHT22;9340;48.756;9.226;2024-03-08T07:39:16;4.60;99.90
18426;DHT22;9340;48.756;9.226;2024-03-08T07:41:43;4.50;99.90
18426;DHT22;9340;48.756;9.226;2024-03-08T07:44:09;4.50;99.90
18426;DHT22;9340;48.756;9.226;2024-03-08T07:46:36;4.50;99.90
18426;DHT22;9340;48.756;9.226;2024-03-08T07:49:05;4.60;99.90
18426;DHT22;9340;48.756;9.226;2024-03-08T07:51:32;4.60;99.90
18426;DHT22;9340;48.756;9.226;2024-03-08T07:54:00;4.80;99.90
18426;DHT22;9340;48.756;9.226;2024-03-08T07:56:26;4.90;99.90
18426;DHT22;9340;48.756;9.226;2024-03-08T07:58:53;5.00;99.90
18426;DHT22;9340;48.756;9.226;2024-03-08T08:01:20;5.20;99.90
18426;DHT22;9340;48.756;9.226;2024-03-08T08:03:46;5.30;99.90
18426;DHT22;9340;48.756;9.226;2024-03-08T08:06:15;5.30;99.90
18426;DHT22;9340;48.756;9.226;2024-03-08T08:08:42;5.20;99.90
18426;DHT22;9340;48.756;9.226;2024-03-08T08:11:09;5.10;99.90
18426;DHT22;9340;48.756;9.226;2024-03-08T08:13:37;5.10;99.90
18426;DHT22;9340;48.756;9.226;2024-03-08T08:16:04;5.10;99.90
18426;DHT22;9340;48.756;9.226;2024-03-08T08:18:32;5.10;99.90
18426;DHT22;9340;48.756;9.226;2024-03-08T08:21:00;5.30;99.90
18426;DHT22;9340;48.756;9.226;2024-03-08T08:23:28;5.30;99.90
18426;DHT22;9340;48.756;9.226;2024-03-08T08:25:56;5.20;99.90
18426;DHT22;9340;48.756;9.226;2024-03-08T08:28:23;5.00;99.90
18426;DHT22;9340;48.756;9.226;2024-03-08T08:30:50;4.90;99.90
18426;DHT22;9340;48.756;9.226;2024-03-08T08:33:17;4.90;99.90
18426;DHT22;9340;48.756;9.226;2024-03-08T08:35:45;4.80;99.90
18426;DHT22;9340;48.756;9.226;2024-03-08T08:38:13;4.80;99.90
18426;DHT22;9340;48.756;9.226;2024-03-08T08:40:41;4.90;99.90
18426;DHT22;9340;48.756;9.226;2024-03-08T08:43:08;5.10;99.90
18426;DHT22;9340;48.756;9.226;2024-03-08T08:45:35;5.40;99.90
18426;DHT22;9340;48.756;9.226;2024-03-08T08:48:05;5.40;99.90
18426;DHT22;9340;48.756;9.226;2024-03-08T08:50:32;5.60;99.90
18426;DHT22;9340;48.756;9.226;2024-03-08T08:52:59;5.60;99.90
18426;DHT22;9340;48.756;9.226;2024-03-08T08:55:25;5.30;99.90
18426;DHT22;9340;48.756;9.226;2024-03-08T08:57:54;5.30;99.90
18426;DHT22;9340;48.756;9.226;2024-03-08T09:00:21;5.40;99.90
18426;DHT22;9340;48.756;9.226;2024-03-08T09:02:52;5.50;99.90
18426;DHT22;9340;48.756;9.226;2024-03-08T09:05:20;5.40;99.90
18426;DHT22;9340;48.756;9.226;2024-03-08T09:07:49;5.50;99.90
18426;DHT22;9340;48.756;9.226;2024-03-08T09:10:16;5.40;99.90
18426;DHT22;9340;48.756;9.226;2024-03-08T09:12:44;5.40;99.90
18426;DHT22;9340;48.756;9.226;2024-03-08T09:15:13;5.50;99.90
18426;DHT22;9340;48.756;9.226;2024-03-08T09:17:39;5.40;99.90
18426;DHT22;9340;48.756;9.226;2024-03-08T09:20:07;5.60;99.90
18426;DHT22;9340;48.756;9.226;2024-03-08T09:22:35;5.80;99.90
18426;DHT22;9340;48.756;9.226;2024-03-08T09:25:03;6.00;99.90
18426;DHT22;9340;48.756;9.226;2024-03-08T09:27:30;6.00;99.90
18426;DHT22;9340;48.756;9.226;2024-03-08T09:29:57;6.10;99.90
18426;DHT22;9340;48.756;9.226;2024-03-08T09:32:25;6.00;99.90
18426;DHT22;9340;48.756;9.226;2024-03-08T09:34:52;6.00;99.90
18426;DHT22;9340;48.756;9.226;2024-03-08T09:37:18;5.90;99.90
18426;DHT22;9340;48.756;9.226;2024-03-08T09:39:45;5.90;99.90
18426;DHT22;9340;48.756;9.226;2024-03-08T09:42:12;6.10;99.90
18426;DHT22;9340;48.756;9.226;2024-03-08T09:44:43;6.10;99.90
18426;DHT22;9340;48.756;9.226;2024-03-08T09:47:12;6.10;99.90
18426;DHT22;9340;48.756;9.226;2024-03-08T09:49:44;6.30;99.90
18426;DHT22;9340;48.756;9.226;2024-03-08T09:52:11;6.60;99.90
18426;DHT22;9340;48.756;9.226;2024-03-08T09:54:38;6.90;99.90
18426;DHT22;9340;48.756;9.226;2024-03-08T09:57:06;7.10;99.90
18426;DHT22;9340;48.756;9.226;2024-03-08T09:59:34;7.00;99.90
18426;DHT22;9340;48.756;9.226;2024-03-08T10:02:15;6.70;99.90
18426;DHT22;9340;48.756;9.226;2024-03-08T10:04:44;6.90;99.90
18426;DHT22;9340;48.756;9.226;2024-03-08T10:07:12;7.00;99.90
18426;DHT22;9340;48.756;9.226;2024-03-08T10:09:39;6.80;99.90
18426;DHT22;9340;48.756;9.226;2024-03-08T10:12:07;6.90;99.90
18426;DHT22;9340;48.756;9.226;2024-03-08T10:14:39;6.90;99.90
18426;DHT22;9340;48.756;9.226;2024-03-08T10:17:06;6.90;99.90
18426;DHT22;9340;48.756;9.226;2024-03-08T10:19:32;7.20;99.90
18426;DHT22;9340;48.756;9.226;2024-03-08T10:22:01;7.50;99.90
18426;DHT22;9340;48.756;9.226;2024-03-08T10:24:29;7.00;99.90
18426;DHT22;9340;48.756;9.226;2024-03-08T10:26:59;7.40;99.90
18426;DHT22;9340;48.756;9.226;2024-03-08T10:29:26;7.80;99.90
18426;DHT22;9340;48.756;9.226;2024-03-08T10:31:54;8.10;99.90
18426;DHT22;9340;48.756;9.226;2024-03-08T10:34:21;8.20;99.90
18426;DHT22;9340;48.756;9.226;2024-03-08T10:36:50;8.50;99.90
18426;DHT22;9340;48.756;9.226;2024-03-08T10:39:21;8.60;99.90
18426;DHT22;9340;48.756;9.226;2024-03-08T10:41:53;8.50;99.90
18426;DHT22;9340;48.756;9.226;2024-03-08T10:44:32;8.10;99.90
18426;DHT22;9340;48.756;9.226;2024-03-08T10:47:07;7.70;99.90
18426;DHT22;9340;48.756;9.226;2024-03-08T10:49:38;7.90;99.90
18426;DHT22;9340;48.756;9.226;2024-03-08T10:52:05;8.20;99.90
18426;DHT22;9340;48.756;9.226;2024-03-08T10:54:37;8.50;99.90
18426;DHT22;9340;48.756;9.226;2024-03-08T10:57:05;8.60;99.90
18426;DHT22;9340;48.756;9.226;2024-03-08T10:59:34;8.80;99.90
18426;DHT22;9340;48.756;9.226;2024-03-08T11:02:01;9.00;99.90
18426;DHT22;9340;48.756;9.226;2024-03-08T11:04:31;8.30;99.90
18426;DHT22;9340;48.756;9.226;2024-03-08T11:07:01;8.10;99.90
18426;DHT22;9340;48.756;9.226;2024-03-08T11:09:32;8.20;99.90
18426;DHT22;9340;48.756;9.226;2024-03-08T11:12:20;8.30;99.90
18426;DHT22;9340;48.756;9.226;2024-03-08T11:14:48;8.40;99.90
18426;DHT22;9340;48.756;9.226;2024-03-08T11:17:16;8.50;99.90
18426;DHT22;9340;48.756;9.226;2024-03-08T11:19:48;8.50;99.90
18426;DHT22;9340;48.756;9.226;2024-03-08T11:22:21;8.60;99.90
18426;DHT22;9340;48.756;9.226;2024-03-08T11:24:50;8.90;99.90
18426;DHT22;9340;48.756;9.226;2024-03-08T11:27:16;9.30;99.90
18426;DHT22;9340;48.756;9.226;2024-03-08T11:29:49;9.30;99.90
18426;DHT22;9340;48.756;9.226;2024-03-08T11:32:27;8.80;99.90
18426;DHT22;9340;48.756;9.226;2024-03-08T11:34:55;8.70;99.90
18426;DHT22;9340;48.756;9.226;2024-03-08T11:37:23;8.70;99.90
18426;DHT22;9340;48.756;9.226;2024-03-08T11:39:50;8.40;99.90
18426;DHT22;9340;48.756;9.226;2024-03-08T11:42:18;8.10;99.90
18426;DHT22;9340;48.756;9.226;2024-03-08T11:44:47;8.00;99.90
18426;DHT22;9340;48.756;9.226;2024-03-08T11:47:14;8.00;99.90
18426;DHT22;9340;48.756;9.226;2024-03-08T11:49:42;8.10;99.90
18426;DHT22;9340;48.756;9.226;2024-03-08T11:52:11;7.90;99.90
18426;DHT22;9340;48.756;9.226;2024-03-08T11:54:39;7.80;99.90
18426;DHT22;9340;48.756;9.226;2024-03-08T11:57:05;7.60;99.90
18426;DHT22;9340;48.756;9.226;2024-03-08T11:59:35;7.50;99.90
18426;DHT22;9340;48.756;9.226;2024-03-08T12:02:04;7.30;99.90
18426;DHT22;9340;48.756;9.226;2024-03-08T12:04:32;7.30;99.90
18426;DHT22;9340;48.756;9.226;2024-03-08T12:07:02;7.20;99.90
18426;DHT22;9340;48.756;9.226;2024-03-08T12:09:34;7.40;99.90
18426;DHT22;9340;48.756;9.226;2024-03-08T12:12:02;7.50;99.90
18426;DHT22;9340;48.756;9.226;2024-03-08T12:14:30;7.90;99.90
18426;DHT22;9340;48.756;9.226;2024-03-08T12:16:57;8.10;99.90
18426;DHT22;9340;48.756;9.226;2024-03-08T12:19:27;8.20;99.90
18426;DHT22;9340;48.756;9.226;2024-03-08T12:21:54;8.30;99.90
18426;DHT22;9340;48.756;9.226;2024-03-08T12:24:21;8.20;99.90
18426;DHT22;9340;48.756;9.226;2024-03-08T12:26:48;8.40;99.90
18426;DHT22;9340;48.756;9.226;2024-03-08T12:29:20;8.30;99.90
18426;DHT22;9340;48.756;9.226;2024-03-08T12:31:49;8.10;99.90
18426;DHT22;9340;48.756;9.226;2024-03-08T12:34:17;8.20;99.90
18426;DHT22;9340;48.756;9.226;2024-03-08T12:36:46;8.20;99.90
18426;DHT22;9340;48.756;9.226;2024-03-08T12:39:16;8.20;99.90
18426;DHT22;9340;48.756;9.226;2024-03-08T12:41:43;8.30;99.90
18426;DHT22;9340;48.756;9.226;2024-03-08T12:44:10;8.50;99.90
18426;DHT22;9340;48.756;9.226;2024-03-08T12:46:37;8.70;99.90
18426;DHT22;9340;48.756;9.226;2024-03-08T12:49:07;8.70;99.90
18426;DHT22;9340;48.756;9.226;2024-03-08T12:51:35;8.80;99.90
18426;DHT22;9340;48.756;9.226;2024-03-08T12:54:03;8.80;99.90
18426;DHT22;9340;48.756;9.226;2024-03-08T12:56:33;8.80;99.90
18426;DHT22;9340;48.756;9.226;2024-03-08T12:59:01;8.80;99.90
18426;DHT22;9340;48.756;9.226;2024-03-08T13:01:28;8.80;99.90
18426;DHT22;9340;48.756;9.226;2024-03-08T13:03:55;8.80;99.90
18426;DHT22;9340;48.756;9.226;2024-03-08T13:06:23;8.90;99.90
18426;DHT22;9340;48.756;9.226;2024-03-08T13:08:50;9.00;99.90
18426;DHT22;9340;48.756;9.226;2024-03-08T13:11:20;9.00;99.90
18426;DHT22;9340;48.756;9.226;2024-03-08T13:13:48;9.10;99.90
18426;DHT22;9340;48.756;9.226;2024-03-08T13:16:16;9.30;99.90
18426;DHT22;9340;48.756;9.226;2024-03-08T13:18:45;9.30;99.90
18426;DHT22;9340;48.756;9.226;2024-03-08T13:21:14;9.30;99.90
18426;DHT22;9340;48.756;9.226;2024-03-08T13:23:45;9.30;99.90
18426;DHT22;9340;48.756;9.226;2024-03-08T13:26:15;9.30;99.90
18426;DHT22;9340;48.756;9.226;2024-03-08T13:28:45;9.40;99.90
18426;DHT22;9340;48.756;9.226;2024-03-08T13:31:14;9.30;99.90
18426;DHT22;9340;48.756;9.226;2024-03-08T13:33:41;9.30;99.90
18426;DHT22;9340;48.756;9.226;2024-03-08T13:36:11;9.10;99.90
18426;DHT22;9340;48.756;9.226;2024-03-08T13:38:41;9.10;99.90
18426;DHT22;9340;48.756;9.226;2024-03-08T13:41:10;9.10;99.90
18426;DHT22;9340;48.756;9.226;2024-03-08T13:43:37;9.20;99.90
18426;DHT22;9340;48.756;9.226;2024-03-08T13:46:06;9.20;99.90
18426;DHT22;9340;48.756;9.226;2024-03-08T13:48:33;9.30;99.90
18426;DHT22;9340;48.756;9.226;2024-03-08T13:51:00;9.30;99.90
18426;DHT22;9340;48.756;9.226;2024-03-08T13:53:27;9.30;99.90
18426;DHT22;9340;48.756;9.226;2024-03-08T13:55:54;9.40;99.90
18426;DHT22;9340;48.756;9.226;2024-03-08T13:58:22;9.40;99.90
18426;DHT22;9340;48.756;9.226;2024-03-08T14:00:49;9.30;99.90
18426;DHT22;9340;48.756;9.226;2024-03-08T14:03:18;9.40;99.90
18426;DHT22;9340;48.756;9.226;2024-03-08T14:05:46;9.40;99.90
18426;DHT22;9340;48.756;9.226;2024-03-08T14:08:13;9.30;99.90
18426;DHT22;9340;48.756;9.226;2024-03-08T14:10:41;9.40;99.90
18426;DHT22;9340;48.756;9.226;2024-03-08T14:13:08;9.40;99.90
18426;DHT22;9340;48.756;9.226;2024-03-08T14:15:37;9.30;99.90
18426;DHT22;9340;48.756;9.226;2024-03-08T14:18:07;9.30;99.90
18426;DHT22;9340;48.756;9.226;2024-03-08T14:20:35;9.30;99.90
18426;DHT22;9340;48.756;9.226;2024-03-08T14:23:02;9.30;99.90
18426;DHT22;9340;48.756;9.226;2024-03-08T14:25:32;9.30;99.90
18426;DHT22;9340;48.756;9.226;2024-03-08T14:27:58;9.40;99.90
18426;DHT22;9340;48.756;9.226;2024-03-08T14:30:32;9.40;99.90
18426;DHT22;9340;48.756;9.226;2024-03-08T14:33:03;9.50;99.90
18426;DHT22;9340;48.756;9.226;2024-03-08T14:35:34;9.50;99.90
18426;DHT22;9340;48.756;9.226;2024-03-08T14:38:01;9.50;99.90
18426;DHT22;9340;48.756;9.226;2024-03-08T14:40:27;9.60;99.90
18426;DHT22;9340;48.756;9.226;2024-03-08T14:42:56;9.90;99.90
18426;DHT22;9340;48.756;9.226;2024-03-08T14:45:23;10.00;99.90
18426;DHT22;9340;48.756;9.226;2024-03-08T14:47:52;10.00;99.90
18426;DHT22;9340;48.756;9.226;2024-03-08T14:50:21;9.90;99.90
18426;DHT22;9340;48.756;9.226;2024-03-08T14:52:50;9.80;99.90
18426;DHT22;9340;48.756;9.226;2024-03-08T14:55:18;9.70;99.90
18426;DHT22;9340;48.756;9.226;2024-03-08T14:57:47;9.70;99.90
18426;DHT22;9340;48.756;9.226;2024-03-08T15:00:17;9.70;99.90
18426;DHT22;9340;48.756;9.226;2024-03-08T15:02:52;9.60;99.90
18426;DHT22;9340;48.756;9.226;2024-03-08T15:05:19;9.60;99.90
18426;DHT22;9340;48.756;9.226;2024-03-08T15:07:47;9.70;99.90
18426;DHT22;9340;48.756;9.226;2024-03-08T15:10:16;9.60;99.90
18426;DHT22;9340;48.756;9.226;2024-03-08T15:12:46;9.60;99.90
18426;DHT22;9340;48.756;9.226;2024-03-08T15:15:12;9.70;99.90
18426;DHT22;9340;48.756;9.226;2024-03-08T15:17:43;9.70;99.90
18426;DHT22;9340;48.756;9.226;2024-03-08T15:20:12;9.70;99.90
18426;DHT22;9340;48.756;9.226;2024-03-08T15:22:42;9.60;99.90
18426;DHT22;9340;48.756;9.226;2024-03-08T15:25:10;9.60;99.90
18426;DHT22;9340;48.756;9.226;2024-03-08T15:27:43;9.60;99.90
18426;DHT22;9340;48.756;9.226;2024-03-08T15:30:14;9.60;99.90
18426;DHT22;9340;48.756;9.226;2024-03-08T15:32:44;9.60;99.90
18426;DHT22;9340;48.756;9.226;2024-03-08T15:35:11;9.70;99.90
18426;DHT22;9340;48.756;9.226;2024-03-08T15:37:40;9.70;99.90
18426;DHT22;9340;48.756;9.226;2024-03-08T15:40:09;9.70;99.90
18426;DHT22;9340;48.756;9.226;2024-03-08T15:42:48;9.70;99.90
18426;DHT22;9340;48.756;9.226;2024-03-08T15:45:15;9.70;99.90
18426;DHT22;9340;48.756;9.226;2024-03-08T15:47:43;9.60;99.90
18426;DHT22;9340;48.756;9.226;2024-03-08T15:50:10;9.60;99.90
18426;DHT22;9340;48.756;9.226;2024-03-08T15:52:38;9.60;99.90
18426;DHT22;9340;48.756;9.226;2024-03-08T15:55:06;9.60;99.90
18426;DHT22;9340;48.756;9.226;2024-03-08T15:57:33;9.60;99.90
18426;DHT22;9340;48.756;9.226;2024-03-08T16:00:02;9.60;99.90
18426;DHT22;9340;48.756;9.226;2024-03-08T16:02:39;9.70;99.90
18426;DHT22;9340;48.756;9.226;2024-03-08T16:05:07;9.70;99.90
18426;DHT22;9340;48.756;9.226;2024-03-08T16:07:37;9.60;99.90